Terminal Aerodrome Forecast
Issued by NWS

Home | Current Version | Previous Version | Text Only | Print | Product List | Glossary Off
Versions: 1 2 3 4 5 6 7 8 9 10 11 12

000
FTUS43 KICT 162338
TAFHUT
TAF
KHUT 162338Z 1700/1724 17012KT P6SM BKN250
     FM170900 18006KT P6SM OVC025
     FM171100 22005KT P6SM OVC015
     FM171400 24005KT P6SM OVC007
     FM171800 30005KT P6SM OVC015
     FM172000 32006KT P6SM BKN025=

USA.gov is the U.S. government's official web portal to all federal, state and local government web resources and services.